createdAt,value
2023-03-21T00:03:59.443Z,8.6
2023-03-21T00:14:05.721Z,8.6
2023-03-21T00:24:11.916Z,8.6
2023-03-21T00:34:18.080Z,8.5
2023-03-21T00:44:24.154Z,8.3
2023-03-21T00:54:30.361Z,8.1
2023-03-21T01:04:35.629Z,7.9
2023-03-21T01:14:41.842Z,7.7
2023-03-21T01:24:48.031Z,7.6
2023-03-21T01:34:54.233Z,7.4
2023-03-21T01:45:00.450Z,7.2
2023-03-21T01:55:06.649Z,7.1
2023-03-21T02:05:12.852Z,7
2023-03-21T02:15:19.058Z,6.9
2023-03-21T02:25:25.254Z,6.9
2023-03-21T02:35:31.483Z,6.9
2023-03-21T02:45:37.670Z,6.8
2023-03-21T02:55:43.891Z,6.9
2023-03-21T03:05:50.097Z,7.1
2023-03-21T03:15:55.353Z,7.3
2023-03-21T03:26:01.551Z,7.2
2023-03-21T03:36:07.757Z,6.8
2023-03-21T03:46:13.962Z,6.6
2023-03-21T03:56:20.166Z,6.5
2023-03-21T04:06:26.373Z,6.5
2023-03-21T04:16:32.577Z,6.6
2023-03-21T04:26:38.791Z,6.7
2023-03-21T04:36:44.986Z,6.8
2023-03-21T04:46:51.206Z,6.9
2023-03-21T04:56:57.395Z,6.9
2023-03-21T05:07:03.632Z,7
2023-03-21T05:17:09.812Z,6.9
2023-03-21T05:27:15.054Z,6.6
2023-03-21T05:37:21.282Z,6.5
2023-03-21T05:47:27.468Z,6.5
2023-03-21T05:57:33.694Z,6.6
2023-03-21T06:07:39.894Z,6.8
2023-03-21T06:17:46.104Z,7
2023-03-21T06:27:52.319Z,7
2023-03-21T06:37:58.513Z,7.7
2023-03-21T06:48:04.736Z,8.5
2023-03-21T06:58:10.927Z,9.1
2023-03-21T07:08:17.110Z,9.5
2023-03-21T07:18:23.414Z,10.1
2023-03-21T07:28:29.600Z,10.4
2023-03-21T07:38:35.743Z,10.6
2023-03-21T07:48:41.013Z,10.9
2023-03-21T07:58:47.198Z,11.4
2023-03-21T08:08:53.408Z,11.5
2023-03-21T08:18:59.705Z,11.7
2023-03-21T08:29:05.822Z,12.1
2023-03-21T08:39:12.199Z,12.2
2023-03-21T08:49:18.252Z,12
2023-03-21T08:59:24.451Z,12.1
2023-03-21T09:09:30.636Z,12.7
2023-03-21T09:19:36.862Z,12.7
2023-03-21T09:29:43.061Z,12.6
2023-03-21T09:39:49.284Z,12.7
2023-03-21T09:49:55.488Z,12.8
2023-03-21T10:00:00.740Z,12.9
2023-03-21T10:10:06.918Z,13.7
2023-03-21T10:20:13.124Z,13.5
2023-03-21T10:30:19.460Z,13.3
2023-03-21T10:40:25.694Z,13.2
2023-03-21T10:50:31.770Z,12.5
2023-03-21T11:00:38.065Z,11.8
2023-03-21T11:10:44.235Z,11.4
2023-03-21T11:20:50.508Z,11.2
2023-03-21T11:30:56.574Z,11
2023-03-21T11:41:02.994Z,11
2023-03-21T11:51:08.968Z,11.1
2023-03-21T12:01:15.198Z,10.7
2023-03-21T12:11:20.440Z,11.3
2023-03-21T12:21:26.642Z,11.3
2023-03-21T12:31:32.885Z,11.5
2023-03-21T12:41:39.210Z,11.8
2023-03-21T12:51:45.260Z,11.4
2023-03-21T13:11:57.750Z,11.2
2023-03-21T13:22:03.976Z,11.4
2023-03-21T13:32:10.193Z,11.7
2023-03-21T13:42:16.433Z,11.1
2023-03-21T13:52:22.504Z,10.9
2023-03-21T14:02:28.756Z,10.8
2023-03-21T14:12:35.056Z,10.7
2023-03-21T14:22:41.122Z,10.8
2023-03-21T14:32:46.371Z,10.9
2023-03-21T14:42:52.727Z,10.6
2023-03-21T14:52:58.899Z,10.3
2023-03-21T15:03:04.998Z,10
2023-03-21T15:13:11.299Z,10.2
2023-03-21T15:23:17.500Z,10.6
2023-03-21T15:33:23.609Z,10.5
2023-03-21T15:43:29.826Z,10.5
2023-03-21T15:53:36.319Z,10.4
2023-03-21T16:03:42.377Z,10.5
2023-03-21T16:13:48.637Z,10.5
2023-03-21T16:23:54.822Z,10.6
2023-03-21T16:34:00.985Z,10.2
2023-03-21T16:44:06.278Z,10.2
2023-03-21T16:54:12.372Z,10.2
2023-03-21T17:04:18.555Z,10
2023-03-21T17:14:24.836Z,10
2023-03-21T17:24:31.075Z,10
2023-03-21T17:34:37.209Z,9.7
2023-03-21T17:44:43.739Z,9.5
2023-03-21T17:54:49.736Z,9.2
2023-03-21T18:04:55.820Z,8.8
2023-03-21T18:15:02.131Z,8.5
2023-03-21T18:25:08.208Z,8.4
2023-03-21T18:35:14.680Z,8.2
2023-03-21T18:45:20.717Z,8.2
2023-03-21T18:55:26.001Z,8.2
2023-03-21T19:05:32.154Z,8.2
2023-03-21T19:15:38.339Z,8.2
2023-03-21T19:25:44.521Z,8.2
2023-03-21T19:35:50.767Z,8.1
2023-03-21T19:45:56.959Z,8.1
2023-03-21T19:56:03.093Z,8.2
2023-03-21T20:06:09.278Z,8.1
2023-03-21T20:16:15.479Z,8.1
2023-03-21T20:26:21.798Z,8.1
2023-03-21T20:36:27.966Z,7.9
2023-03-21T20:46:34.095Z,7.7
2023-03-21T20:56:39.418Z,7.5
2023-03-21T21:06:45.591Z,7.2
2023-03-21T21:16:51.755Z,7.1
2023-03-21T21:26:58.011Z,7.2
2023-03-21T21:37:04.178Z,7
2023-03-21T21:47:10.390Z,6.9
2023-03-21T21:57:16.596Z,6.7
2023-03-21T22:07:22.882Z,6.5
2023-03-21T22:17:29.121Z,6.4
2023-03-21T22:27:35.462Z,6.4
2023-03-21T22:37:41.621Z,6.4
2023-03-21T22:47:47.681Z,6.4
2023-03-21T22:57:54.071Z,6.4
2023-03-21T23:07:59.180Z,6.4
2023-03-21T23:18:05.393Z,6.2
2023-03-21T23:28:11.609Z,6.1
2023-03-21T23:38:17.788Z,6.1
2023-03-21T23:48:23.988Z,6.4
2023-03-21T23:58:30.194Z,6.9
